createdAt,value
2018-05-29T00:00:07.968Z,0
2018-05-29T00:01:09.629Z,0
2018-05-29T00:02:11.291Z,0
2018-05-29T00:03:12.959Z,0
2018-05-29T00:04:14.619Z,0
2018-05-29T00:05:16.285Z,0
2018-05-29T00:06:17.935Z,0
2018-05-29T00:07:19.596Z,0
2018-05-29T00:08:21.252Z,0
2018-05-29T00:09:22.920Z,0
2018-05-29T00:10:24.572Z,0
2018-05-29T00:11:26.237Z,0
2018-05-29T00:12:27.895Z,0
2018-05-29T00:13:29.555Z,0
2018-05-29T00:14:31.209Z,0
2018-05-29T00:15:32.872Z,0
2018-05-29T00:16:34.537Z,0
2018-05-29T00:17:36.600Z,0
2018-05-29T00:18:38.354Z,0
2018-05-29T00:19:40.002Z,0
2018-05-29T00:20:41.680Z,0
2018-05-29T00:21:43.340Z,0
2018-05-29T00:22:45.006Z,0
2018-05-29T00:23:46.660Z,0
2018-05-29T00:24:48.328Z,0
2018-05-29T00:25:49.981Z,0
2018-05-29T00:26:51.635Z,0
2018-05-29T00:27:53.292Z,0
2018-05-29T00:28:54.945Z,0
2018-05-29T00:29:56.608Z,0
2018-05-29T00:30:58.263Z,0
2018-05-29T00:31:59.923Z,0
2018-05-29T00:33:01.587Z,0
2018-05-29T00:34:03.233Z,0
2018-05-29T00:35:04.897Z,0
2018-05-29T00:36:06.558Z,0
2018-05-29T00:37:08.249Z,0
2018-05-29T00:38:09.913Z,0
2018-05-29T00:39:11.575Z,0
2018-05-29T00:40:13.249Z,0
2018-05-29T00:41:14.911Z,0
2018-05-29T00:42:16.565Z,0
2018-05-29T00:43:18.221Z,0
2018-05-29T00:44:19.872Z,0
2018-05-29T00:45:21.533Z,0
2018-05-29T00:46:23.190Z,0
2018-05-29T00:47:24.856Z,0
2018-05-29T00:48:26.505Z,0
2018-05-29T00:49:28.175Z,0
2018-05-29T00:50:29.828Z,0
2018-05-29T00:51:31.493Z,0
2018-05-29T00:52:33.153Z,0
2018-05-29T00:53:34.820Z,0
2018-05-29T00:54:36.506Z,0
2018-05-29T00:55:38.173Z,0
2018-05-29T00:56:39.832Z,0
2018-05-29T00:57:41.478Z,0
2018-05-29T00:58:43.139Z,0
2018-05-29T00:59:44.805Z,0
2018-05-29T01:00:46.485Z,0
2018-05-29T01:01:48.153Z,0
2018-05-29T01:02:49.806Z,0
2018-05-29T01:03:51.464Z,0
2018-05-29T01:04:53.130Z,0
2018-05-29T01:05:54.786Z,0
2018-05-29T01:06:56.458Z,0
2018-05-29T01:07:58.113Z,0
2018-05-29T01:08:59.772Z,0
2018-05-29T01:10:01.417Z,0
2018-05-29T01:11:03.085Z,0
2018-05-29T01:12:04.737Z,0
2018-05-29T01:13:06.394Z,0
2018-05-29T01:14:08.051Z,0
2018-05-29T01:15:09.720Z,0
2018-05-29T01:16:11.393Z,0
2018-05-29T01:17:13.044Z,0
2018-05-29T01:18:14.699Z,0
2018-05-29T01:19:16.361Z,0
2018-05-29T01:20:18.018Z,0
2018-05-29T01:21:19.680Z,0
2018-05-29T01:22:21.334Z,0
2018-05-29T01:23:22.994Z,0
2018-05-29T01:24:24.653Z,0
2018-05-29T01:25:26.310Z,0
2018-05-29T01:26:27.961Z,0
2018-05-29T01:27:29.626Z,0
2018-05-29T01:28:31.278Z,0
2018-05-29T01:29:32.946Z,0
2018-05-29T01:30:34.609Z,0
2018-05-29T01:31:36.274Z,0
2018-05-29T01:32:37.916Z,0
2018-05-29T01:33:39.577Z,0
2018-05-29T01:34:41.228Z,0
2018-05-29T01:35:42.893Z,0
2018-05-29T01:36:44.551Z,0
2018-05-29T01:37:46.239Z,0
2018-05-29T01:38:47.913Z,0
2018-05-29T01:39:49.606Z,0
2018-05-29T01:40:51.293Z,0
2018-05-29T01:41:52.952Z,0
2018-05-29T01:42:54.617Z,0
2018-05-29T01:43:56.270Z,0
2018-05-29T01:44:57.928Z,0
2018-05-29T01:45:59.583Z,0
2018-05-29T01:47:01.239Z,0
2018-05-29T01:48:02.908Z,0
2018-05-29T01:49:04.577Z,0
2018-05-29T01:50:06.225Z,0
2018-05-29T01:51:07.899Z,0
2018-05-29T01:52:09.585Z,0
2018-05-29T01:53:11.247Z,0
2018-05-29T01:54:12.901Z,0
2018-05-29T01:55:14.558Z,0
2018-05-29T02:01:37.805Z,0
2018-05-29T02:02:39.451Z,0
2018-05-29T02:03:41.113Z,0
2018-05-29T02:04:42.778Z,0
2018-05-29T02:05:44.452Z,0
2018-05-29T02:06:46.112Z,0
2018-05-29T02:07:47.758Z,0
2018-05-29T02:08:49.425Z,0
2018-05-29T02:09:51.086Z,0
2018-05-29T02:10:52.830Z,0
2018-05-29T02:11:54.522Z,0
2018-05-29T02:12:56.170Z,0
2018-05-29T02:13:57.822Z,0
2018-05-29T02:14:59.479Z,0
2018-05-29T02:16:01.138Z,0
2018-05-29T02:17:02.791Z,0
2018-05-29T02:18:04.444Z,0
2018-05-29T02:19:06.102Z,0
2018-05-29T02:20:07.781Z,0
2018-05-29T02:21:09.435Z,0
2018-05-29T02:22:11.094Z,0
2018-05-29T02:23:12.753Z,0
2018-05-29T02:24:14.417Z,0
2018-05-29T02:25:16.081Z,0
2018-05-29T02:26:17.741Z,0
2018-05-29T02:27:19.388Z,0
2018-05-29T02:28:21.053Z,0
2018-05-29T02:29:22.717Z,0
2018-05-29T02:30:24.369Z,0
2018-05-29T02:31:26.031Z,0
2018-05-29T02:32:27.695Z,0
2018-05-29T02:33:29.346Z,0
2018-05-29T02:34:31.025Z,0
2018-05-29T02:35:32.690Z,0
2018-05-29T02:36:34.379Z,0
2018-05-29T02:37:36.063Z,0
2018-05-29T02:38:37.707Z,0
2018-05-29T02:39:39.367Z,0
2018-05-29T02:40:41.018Z,0
2018-05-29T02:41:42.671Z,0
2018-05-29T02:42:44.324Z,0
2018-05-29T02:43:45.979Z,0
2018-05-29T02:44:47.633Z,0
2018-05-29T02:45:49.317Z,0
2018-05-29T02:46:50.950Z,0
2018-05-29T02:47:52.604Z,0
2018-05-29T02:48:54.269Z,0
2018-05-29T02:49:55.936Z,0
2018-05-29T02:50:57.592Z,0
2018-05-29T02:51:59.268Z,0
2018-05-29T02:53:00.912Z,0
2018-05-29T02:54:02.560Z,0
2018-05-29T02:55:04.228Z,0
2018-05-29T02:56:05.890Z,0
2018-05-29T02:57:07.554Z,0
2018-05-29T02:58:09.209Z,0
2018-05-29T02:59:10.872Z,0
2018-05-29T03:00:12.567Z,0
2018-05-29T03:01:14.228Z,0
2018-05-29T03:02:15.882Z,0
2018-05-29T03:03:17.526Z,0
2018-05-29T03:04:19.187Z,0
2018-05-29T03:05:20.860Z,0
2018-05-29T03:06:22.568Z,0
2018-05-29T03:07:24.212Z,5
2018-05-29T03:08:25.864Z,5
2018-05-29T03:09:27.527Z,5
2018-05-29T03:10:29.185Z,5
2018-05-29T03:11:30.843Z,5
2018-05-29T03:12:32.513Z,5
2018-05-29T03:13:34.189Z,5
2018-05-29T03:14:35.893Z,10
2018-05-29T03:15:37.550Z,10
2018-05-29T03:16:39.216Z,10
2018-05-29T03:17:40.861Z,10
2018-05-29T03:18:42.598Z,10
2018-05-29T03:19:44.243Z,10
2018-05-29T03:20:45.900Z,15
2018-05-29T03:21:47.565Z,15
2018-05-29T03:22:49.236Z,15
2018-05-29T03:23:50.903Z,15
2018-05-29T03:24:52.562Z,20
2018-05-29T03:25:54.230Z,20
2018-05-29T03:26:55.894Z,20
2018-05-29T03:27:57.549Z,25
2018-05-29T03:28:59.237Z,25
2018-05-29T03:30:00.903Z,25
2018-05-29T03:31:02.568Z,30
2018-05-29T03:32:04.232Z,30
2018-05-29T03:33:05.901Z,30
2018-05-29T03:34:07.562Z,35
2018-05-29T03:35:09.224Z,35
2018-05-29T03:36:10.873Z,35
2018-05-29T03:37:12.534Z,40
2018-05-29T03:38:14.199Z,40
2018-05-29T03:39:15.850Z,45
2018-05-29T03:40:17.547Z,45
2018-05-29T03:41:19.195Z,45
2018-05-29T03:42:20.858Z,50
2018-05-29T03:43:22.520Z,50
2018-05-29T03:44:24.189Z,55
2018-05-29T03:45:25.849Z,55
2018-05-29T03:46:27.540Z,60
2018-05-29T03:47:29.213Z,60
2018-05-29T03:48:30.882Z,65
2018-05-29T03:49:32.545Z,65
2018-05-29T03:50:34.206Z,70
2018-05-29T03:51:35.882Z,70
2018-05-29T03:52:37.544Z,75
2018-05-29T03:53:39.212Z,75
2018-05-29T03:54:40.872Z,80
2018-05-29T03:55:42.542Z,85
2018-05-29T03:56:44.197Z,85
2018-05-29T03:57:45.867Z,90
2018-05-29T03:58:47.522Z,90
2018-05-29T03:59:49.183Z,95
2018-05-29T04:00:50.863Z,95
2018-05-29T04:01:52.530Z,100
2018-05-29T04:02:54.192Z,100
2018-05-29T04:03:55.868Z,105
2018-05-29T04:04:57.528Z,105
2018-05-29T04:05:59.221Z,110
2018-05-29T04:07:00.884Z,110
2018-05-29T04:08:02.560Z,115
2018-05-29T04:09:04.231Z,115
2018-05-29T04:10:05.893Z,120
2018-05-29T04:11:07.570Z,120
2018-05-29T04:12:09.232Z,125
2018-05-29T04:13:10.891Z,125
2018-05-29T04:14:12.563Z,130
2018-05-29T04:15:14.227Z,135
2018-05-29T04:16:15.898Z,140
2018-05-29T04:17:17.569Z,140
2018-05-29T04:18:19.241Z,145
2018-05-29T04:19:20.905Z,150
2018-05-29T04:20:22.562Z,150
2018-05-29T04:21:24.218Z,150
2018-05-29T04:22:25.893Z,155
2018-05-29T04:23:27.549Z,160
2018-05-29T04:24:29.219Z,160
2018-05-29T04:25:30.890Z,165
2018-05-29T04:26:32.554Z,170
2018-05-29T04:27:34.225Z,175
2018-05-29T04:28:35.878Z,180
2018-05-29T04:29:37.540Z,180
2018-05-29T04:30:39.214Z,185
2018-05-29T04:31:40.877Z,190
2018-05-29T04:32:42.538Z,200
2018-05-29T04:33:44.199Z,205
2018-05-29T04:34:45.856Z,210
2018-05-29T04:35:47.533Z,220
2018-05-29T04:36:49.243Z,220
2018-05-29T04:37:50.908Z,225
2018-05-29T04:38:52.581Z,230
2018-05-29T04:39:54.241Z,230
2018-05-29T04:40:55.920Z,235
2018-05-29T04:41:57.579Z,240
2018-05-29T04:42:59.253Z,245
2018-05-29T04:44:00.912Z,250
2018-05-29T04:45:02.612Z,255
2018-05-29T04:46:04.722Z,260
2018-05-29T04:47:06.430Z,260
2018-05-29T04:48:08.050Z,265
2018-05-29T04:49:09.711Z,270
2018-05-29T04:50:11.386Z,270
2018-05-29T04:51:13.044Z,275
2018-05-29T04:52:14.708Z,275
2018-05-29T04:53:16.381Z,280
2018-05-29T04:54:18.036Z,285
2018-05-29T04:55:19.706Z,290
2018-05-29T04:56:21.373Z,290
2018-05-29T04:57:23.037Z,290
2018-05-29T04:58:24.711Z,295
2018-05-29T04:59:26.376Z,300
2018-05-29T05:00:28.055Z,305
2018-05-29T05:01:29.726Z,310
2018-05-29T05:02:31.422Z,310
2018-05-29T05:03:33.062Z,315
2018-05-29T05:04:34.727Z,320
2018-05-29T05:05:36.415Z,320
2018-05-29T05:06:38.080Z,325
2018-05-29T05:07:39.823Z,325
2018-05-29T05:08:42.539Z,330
2018-05-29T05:09:44.188Z,330
2018-05-29T05:10:45.901Z,330
2018-05-29T05:11:47.568Z,335
2018-05-29T05:12:49.360Z,340
2018-05-29T05:13:51.040Z,340
2018-05-29T05:14:53.414Z,340
2018-05-29T05:15:55.089Z,345
2018-05-29T05:16:56.855Z,345
2018-05-29T05:17:58.636Z,345
2018-05-29T05:19:00.308Z,350
2018-05-29T05:20:01.974Z,350
2018-05-29T05:21:03.694Z,355
2018-05-29T05:22:05.368Z,355
2018-05-29T05:23:07.042Z,360
2018-05-29T05:24:08.710Z,360
2018-05-29T05:25:10.381Z,360
2018-05-29T05:26:12.050Z,365
2018-05-29T05:27:13.723Z,370
2018-05-29T05:28:15.384Z,370
2018-05-29T05:29:17.062Z,370
2018-05-29T05:30:18.732Z,375
2018-05-29T05:31:20.413Z,375
2018-05-29T05:32:22.079Z,380
2018-05-29T05:33:23.784Z,385
2018-05-29T05:34:25.453Z,385
2018-05-29T05:35:27.182Z,390
2018-05-29T05:36:28.795Z,400
2018-05-29T05:37:30.463Z,395
2018-05-29T05:38:32.146Z,400
2018-05-29T05:39:33.820Z,400
2018-05-29T05:40:35.488Z,405
2018-05-29T05:41:37.193Z,410
2018-05-29T05:42:38.868Z,415
2018-05-29T05:43:40.544Z,420
2018-05-29T05:44:42.226Z,420
2018-05-29T05:45:43.894Z,420
2018-05-29T05:46:45.584Z,425
2018-05-29T05:47:47.246Z,435
2018-05-29T05:48:48.925Z,430
2018-05-29T05:49:50.597Z,435
2018-05-29T05:50:52.274Z,440
2018-05-29T05:51:53.949Z,440
2018-05-29T05:52:55.628Z,445
2018-05-29T05:53:57.290Z,445
2018-05-29T05:54:58.955Z,445
2018-05-29T06:01:14.168Z,460
2018-05-29T06:02:15.850Z,465
2018-05-29T06:03:17.517Z,470
2018-05-29T06:04:19.186Z,475
2018-05-29T06:05:20.889Z,475
2018-05-29T06:06:22.535Z,480
2018-05-29T06:07:24.214Z,485
2018-05-29T06:08:25.899Z,490
2018-05-29T06:09:27.571Z,490
2018-05-29T06:10:29.341Z,490
2018-05-29T06:11:31.019Z,495
2018-05-29T06:12:32.685Z,495
2018-05-29T06:13:34.355Z,495
2018-05-29T06:14:36.024Z,500
2018-05-29T06:15:37.701Z,505
2018-05-29T06:16:39.365Z,505
2018-05-29T06:17:41.039Z,510
2018-05-29T06:18:42.725Z,520
2018-05-29T06:19:44.384Z,520
2018-05-29T06:20:46.067Z,525
2018-05-29T06:21:47.782Z,525
2018-05-29T06:22:49.430Z,535
2018-05-29T06:23:51.107Z,540
2018-05-29T06:24:52.786Z,545
2018-05-29T06:25:54.463Z,550
2018-05-29T06:26:56.156Z,550
2018-05-29T06:27:57.839Z,550
2018-05-29T06:28:59.519Z,560
2018-05-29T06:30:01.197Z,570
2018-05-29T06:31:02.865Z,580
2018-05-29T06:32:04.545Z,590
2018-05-29T06:33:06.217Z,585
2018-05-29T06:34:07.905Z,590
2018-05-29T06:35:09.593Z,600
2018-05-29T06:36:11.294Z,605
2018-05-29T06:37:13.019Z,610
2018-05-29T06:38:14.698Z,615
2018-05-29T06:39:16.395Z,620
2018-05-29T06:40:18.065Z,625
2018-05-29T06:41:19.734Z,630
2018-05-29T06:42:21.412Z,640
2018-05-29T06:43:23.097Z,640
2018-05-29T06:44:24.790Z,650
2018-05-29T06:45:26.461Z,655
2018-05-29T06:46:28.138Z,660
2018-05-29T06:47:29.812Z,665
2018-05-29T06:48:31.505Z,670
2018-05-29T06:49:33.200Z,670
2018-05-29T06:50:34.888Z,680
2018-05-29T06:51:36.603Z,685
2018-05-29T06:52:38.326Z,690
2018-05-29T06:53:39.949Z,695
2018-05-29T06:54:41.643Z,700
2018-05-29T06:55:43.315Z,710
2018-05-29T06:56:44.989Z,725
2018-05-29T06:57:46.739Z,725
2018-05-29T06:58:48.370Z,730
2018-05-29T06:59:50.072Z,735
2018-05-29T07:00:51.749Z,740
2018-05-29T07:01:53.434Z,760
2018-05-29T07:02:55.119Z,775
2018-05-29T07:03:57.484Z,790
2018-05-29T07:04:58.950Z,805
2018-05-29T07:06:00.630Z,820
2018-05-29T07:07:02.412Z,840
2018-05-29T07:08:03.966Z,860
2018-05-29T07:09:05.687Z,880
2018-05-29T07:10:07.375Z,905
2018-05-29T07:11:09.077Z,950
2018-05-29T07:12:10.748Z,1005
2018-05-29T07:13:12.433Z,1045
2018-05-29T07:14:14.110Z,1100
2018-05-29T07:15:15.789Z,1170
2018-05-29T07:16:17.477Z,1235
2018-05-29T07:17:19.161Z,1330
2018-05-29T07:18:20.847Z,1515
2018-05-29T07:19:22.549Z,1680
2018-05-29T07:20:24.233Z,1995
2018-05-29T07:21:25.907Z,2185
2018-05-29T07:22:27.592Z,2250
2018-05-29T07:23:29.276Z,2345
2018-05-29T07:24:31.001Z,2455
2018-05-29T07:25:32.691Z,2575
2018-05-29T07:26:34.373Z,2725
2018-05-29T07:27:36.058Z,2895
2018-05-29T07:28:37.757Z,2975
2018-05-29T07:29:39.429Z,2920
2018-05-29T07:30:41.107Z,2845
2018-05-29T07:31:42.803Z,2825
2018-05-29T07:32:44.490Z,2840
2018-05-29T07:33:46.179Z,2830
2018-05-29T07:34:47.862Z,2775
2018-05-29T07:35:49.539Z,2690
2018-05-29T07:36:51.231Z,2640
2018-05-29T07:37:52.917Z,2515
2018-05-29T07:38:54.614Z,2355
2018-05-29T07:39:56.277Z,2250
2018-05-29T07:40:57.966Z,2195
2018-05-29T07:41:59.648Z,2065
2018-05-29T07:43:01.322Z,1985
2018-05-29T07:44:03.002Z,1955
2018-05-29T07:45:04.680Z,1870
2018-05-29T07:46:06.357Z,1865
2018-05-29T07:47:08.041Z,1850
2018-05-29T07:48:09.805Z,1755
2018-05-29T07:49:11.489Z,1700
2018-05-29T07:50:13.185Z,1685
2018-05-29T07:51:14.854Z,1705
2018-05-29T07:52:16.530Z,1710
2018-05-29T07:53:18.220Z,1735
2018-05-29T07:54:19.913Z,1715
2018-05-29T07:55:21.589Z,1710
2018-05-29T07:56:23.323Z,1700
2018-05-29T07:57:25.000Z,1710
2018-05-29T07:58:26.799Z,1670
2018-05-29T07:59:28.477Z,1605
2018-05-29T08:00:30.148Z,1630
2018-05-29T08:01:31.836Z,1685
2018-05-29T08:02:33.521Z,1705
2018-05-29T08:03:35.208Z,1725
2018-05-29T08:04:36.920Z,1715
2018-05-29T08:05:38.594Z,1695
2018-05-29T08:06:40.272Z,1680
2018-05-29T08:07:41.950Z,1640
2018-05-29T08:08:43.634Z,1605
2018-05-29T08:09:45.327Z,1585
2018-05-29T08:10:47.012Z,1580
2018-05-29T08:11:48.687Z,1570
2018-05-29T08:12:50.380Z,1585
2018-05-29T08:13:52.061Z,1600
2018-05-29T08:14:53.747Z,1590
2018-05-29T08:15:55.446Z,1605
2018-05-29T08:16:57.115Z,1615
2018-05-29T08:17:58.801Z,1625
2018-05-29T08:19:00.474Z,1665
2018-05-29T08:20:02.157Z,1710
2018-05-29T08:21:03.872Z,1640
2018-05-29T08:22:05.558Z,1660
2018-05-29T08:23:07.248Z,1570
2018-05-29T08:24:08.920Z,1475
2018-05-29T08:25:10.645Z,1435
2018-05-29T08:26:12.321Z,1460
2018-05-29T08:27:14.000Z,1540
2018-05-29T08:28:15.682Z,1605
2018-05-29T08:29:17.360Z,1640
2018-05-29T08:30:19.034Z,1665
2018-05-29T08:31:20.758Z,1670
2018-05-29T08:32:22.447Z,1645
2018-05-29T08:33:24.123Z,1630
2018-05-29T08:34:25.800Z,1755
2018-05-29T08:35:27.484Z,1815
2018-05-29T08:36:29.165Z,1885
2018-05-29T08:37:30.865Z,1870
2018-05-29T08:38:32.555Z,1975
2018-05-29T08:39:34.240Z,2050
2018-05-29T08:40:35.948Z,2060
2018-05-29T08:41:37.650Z,2075
2018-05-29T08:42:39.336Z,2015
2018-05-29T08:43:41.023Z,1990
2018-05-29T08:44:42.721Z,1920
2018-05-29T08:45:44.400Z,1765
2018-05-29T08:46:46.085Z,1600
2018-05-29T08:47:47.768Z,1385
2018-05-29T08:48:49.459Z,1235
2018-05-29T08:49:51.215Z,1210
2018-05-29T08:50:52.915Z,1260
2018-05-29T08:51:54.607Z,1325
2018-05-29T08:52:56.301Z,1390
2018-05-29T08:53:57.995Z,1430
2018-05-29T08:54:59.694Z,1505
2018-05-29T08:56:01.376Z,1590
2018-05-29T08:57:03.058Z,1695
2018-05-29T08:58:04.759Z,1800
2018-05-29T08:59:06.455Z,1875
2018-05-29T09:00:08.155Z,1950
2018-05-29T09:01:09.840Z,2035
2018-05-29T09:02:11.522Z,2060
2018-05-29T09:03:13.209Z,2080
2018-05-29T09:04:14.920Z,2095
2018-05-29T09:05:16.590Z,2030
2018-05-29T09:06:18.270Z,1875
2018-05-29T09:07:19.949Z,1925
2018-05-29T09:08:21.644Z,2010
2018-05-29T09:09:23.324Z,2060
2018-05-29T09:10:25.015Z,2095
2018-05-29T09:11:26.695Z,2215
2018-05-29T09:12:28.377Z,2240
2018-05-29T09:13:30.081Z,2245
2018-05-29T09:14:31.833Z,2210
2018-05-29T09:15:33.523Z,2175
2018-05-29T09:16:35.205Z,2195
2018-05-29T09:17:36.916Z,2225
2018-05-29T09:18:38.599Z,2175
2018-05-29T09:19:40.286Z,2135
2018-05-29T09:20:41.971Z,2035
2018-05-29T09:21:43.656Z,1915
2018-05-29T09:22:45.354Z,1780
2018-05-29T09:23:47.036Z,1760
2018-05-29T09:24:48.712Z,1810
2018-05-29T09:25:50.389Z,1835
2018-05-29T09:26:52.075Z,1935
2018-05-29T09:27:53.853Z,1990
2018-05-29T09:28:55.531Z,2000
2018-05-29T09:29:57.257Z,2035
2018-05-29T09:30:58.919Z,1985
2018-05-29T09:32:00.700Z,1950
2018-05-29T09:33:02.378Z,1930
2018-05-29T09:34:04.053Z,1850
2018-05-29T09:35:05.742Z,1850
2018-05-29T09:36:07.464Z,1860
2018-05-29T09:37:09.187Z,1840
2018-05-29T09:38:10.876Z,1855
2018-05-29T09:39:12.654Z,1855
2018-05-29T09:40:14.402Z,1845
2018-05-29T09:41:16.039Z,1850
2018-05-29T09:42:17.719Z,1860
2018-05-29T09:43:19.411Z,1750
2018-05-29T09:44:21.096Z,1170
2018-05-29T09:45:22.773Z,1765
2018-05-29T09:46:24.461Z,1915
2018-05-29T09:47:26.143Z,1905
2018-05-29T09:48:27.839Z,2370
2018-05-29T09:49:29.542Z,3685
2018-05-29T09:50:31.375Z,4095
2018-05-29T09:51:33.070Z,3425
2018-05-29T09:52:34.760Z,3140
2018-05-29T09:53:36.467Z,3235
2018-05-29T09:54:38.155Z,3315
2018-05-29T09:55:39.833Z,3570
2018-05-29T10:02:02.642Z,3520
2018-05-29T10:03:04.326Z,3595
2018-05-29T10:04:56.266Z,3285
2018-05-29T10:05:57.924Z,3360
2018-05-29T10:06:59.622Z,3445
2018-05-29T10:08:01.284Z,3405
2018-05-29T10:09:02.967Z,3390
2018-05-29T10:10:04.658Z,3515
2018-05-29T10:11:06.344Z,3535
2018-05-29T10:12:08.033Z,3455
2018-05-29T10:13:09.726Z,3465
2018-05-29T10:14:11.397Z,3710
2018-05-29T10:15:13.080Z,3710
2018-05-29T10:16:14.776Z,3820
2018-05-29T10:17:16.457Z,3820
2018-05-29T10:18:18.152Z,3825
2018-05-29T10:19:19.840Z,3760
2018-05-29T10:20:21.526Z,3710
2018-05-29T10:21:23.216Z,3910
2018-05-29T10:22:24.899Z,4015
2018-05-29T10:23:26.615Z,3640
2018-05-29T10:24:28.320Z,3680
2018-05-29T10:25:30.007Z,3635
2018-05-29T10:26:31.690Z,3520
2018-05-29T10:27:33.385Z,3585
2018-05-29T10:28:35.067Z,3510
2018-05-29T10:29:36.792Z,3550
2018-05-29T10:30:38.462Z,3690
2018-05-29T10:31:40.175Z,3795
2018-05-29T10:32:41.846Z,3890
2018-05-29T10:33:43.536Z,3885
2018-05-29T10:34:45.217Z,3995
2018-05-29T10:35:46.918Z,3965
2018-05-29T10:36:48.592Z,3875
2018-05-29T10:37:50.294Z,3515
2018-05-29T10:38:51.983Z,3635
2018-05-29T10:39:53.678Z,3430
2018-05-29T10:40:55.360Z,3290
2018-05-29T10:41:57.050Z,3250
2018-05-29T10:42:58.732Z,3305
2018-05-29T10:44:00.429Z,3190
2018-05-29T10:45:02.126Z,3120
2018-05-29T10:46:03.839Z,3240
2018-05-29T10:47:05.532Z,3285
2018-05-29T10:48:07.210Z,3135
2018-05-29T10:49:08.928Z,3425
2018-05-29T10:50:10.619Z,3280
2018-05-29T10:51:12.323Z,3285
2018-05-29T10:52:14.006Z,3430
2018-05-29T10:53:15.749Z,2930
2018-05-29T10:54:17.406Z,3015
2018-05-29T10:55:19.100Z,3150
2018-05-29T10:56:20.791Z,3240
2018-05-29T10:57:22.491Z,3225
2018-05-29T10:58:24.171Z,3545
2018-05-29T10:59:25.913Z,3780
2018-05-29T11:00:28.851Z,3815
2018-05-29T11:01:30.626Z,3980
2018-05-29T11:02:32.344Z,3900
2018-05-29T11:03:34.030Z,3915
2018-05-29T11:04:35.726Z,3935
2018-05-29T11:05:37.414Z,3765
2018-05-29T11:06:39.116Z,3775
2018-05-29T11:07:40.801Z,3775
2018-05-29T11:08:42.486Z,3900
2018-05-29T11:09:44.182Z,3730
2018-05-29T11:10:45.873Z,3755
2018-05-29T11:11:47.583Z,3950
2018-05-29T11:12:49.266Z,4090
2018-05-29T11:13:50.957Z,4045
2018-05-29T11:14:52.659Z,3850
2018-05-29T11:15:54.366Z,3920
2018-05-29T11:16:56.053Z,3580
2018-05-29T11:17:57.754Z,3785
2018-05-29T11:18:59.437Z,3875
2018-05-29T11:20:01.147Z,3705
2018-05-29T11:21:02.812Z,3735
2018-05-29T11:22:04.505Z,3710
2018-05-29T11:23:06.194Z,1295
2018-05-29T11:24:07.941Z,4010
2018-05-29T11:25:09.602Z,4005
2018-05-29T11:26:11.291Z,3975
2018-05-29T11:27:12.976Z,3915
2018-05-29T11:28:14.656Z,3765
2018-05-29T11:29:16.341Z,3645
2018-05-29T11:30:18.030Z,3505
2018-05-29T11:31:19.790Z,3440
2018-05-29T11:32:21.401Z,3740
2018-05-29T11:33:23.085Z,3700
2018-05-29T11:34:24.790Z,3385
2018-05-29T11:35:26.494Z,3330
2018-05-29T11:36:28.191Z,3140
2018-05-29T11:37:29.912Z,2905
2018-05-29T11:38:31.598Z,2850
2018-05-29T11:39:33.283Z,3020
2018-05-29T11:40:34.981Z,3695
2018-05-29T11:41:36.731Z,3365
2018-05-29T11:42:39.543Z,1390
2018-05-29T11:43:41.038Z,2810
2018-05-29T11:44:42.766Z,3185
2018-05-29T11:45:44.587Z,3190
2018-05-29T11:46:46.264Z,3115
2018-05-29T11:47:47.956Z,3100
2018-05-29T11:48:49.644Z,2960
2018-05-29T11:49:51.321Z,2870
2018-05-29T11:50:53.011Z,3105
2018-05-29T11:51:54.703Z,3070
2018-05-29T11:52:56.391Z,1325
2018-05-29T11:53:58.067Z,1070
2018-05-29T11:54:59.784Z,1775
2018-05-29T11:56:01.508Z,2960
2018-05-29T11:57:03.180Z,2985
2018-05-29T11:58:04.874Z,3070
2018-05-29T11:59:06.576Z,3135
2018-05-29T12:00:08.263Z,1080
2018-05-29T12:01:09.937Z,1020
2018-05-29T12:02:11.613Z,960
2018-05-29T12:03:13.295Z,985
2018-05-29T12:04:14.981Z,1235
2018-05-29T12:05:16.665Z,1590
2018-05-29T12:06:18.367Z,2680
2018-05-29T12:07:20.135Z,2985
2018-05-29T12:08:21.833Z,3110
2018-05-29T12:09:23.531Z,3030
2018-05-29T12:10:25.228Z,2910
2018-05-29T12:11:26.908Z,3065
2018-05-29T12:12:28.582Z,3245
2018-05-29T12:13:30.259Z,3505
2018-05-29T12:14:31.944Z,3220
2018-05-29T12:15:33.759Z,3110
2018-05-29T12:16:35.460Z,3230
2018-05-29T12:17:37.178Z,3335
2018-05-29T12:18:38.865Z,1575
2018-05-29T12:19:40.560Z,3440
2018-05-29T12:20:42.245Z,3325
2018-05-29T12:21:43.925Z,3160
2018-05-29T12:22:45.607Z,2930
2018-05-29T12:23:47.298Z,2695
2018-05-29T12:24:48.999Z,2020
2018-05-29T12:25:50.680Z,1800
2018-05-29T12:26:52.424Z,2490
2018-05-29T12:27:54.109Z,1970
2018-05-29T12:28:55.788Z,2055
2018-05-29T12:29:57.504Z,2395
2018-05-29T12:30:59.181Z,2880
2018-05-29T12:32:00.918Z,3110
2018-05-29T12:33:02.593Z,3170
2018-05-29T12:34:04.286Z,3280
2018-05-29T12:35:05.962Z,3255
2018-05-29T12:36:07.642Z,3190
2018-05-29T12:37:09.325Z,3275
2018-05-29T12:38:11.017Z,3325
2018-05-29T12:39:12.856Z,3230
2018-05-29T12:40:14.536Z,3300
2018-05-29T12:41:16.217Z,3405
2018-05-29T12:42:17.930Z,3555
2018-05-29T12:43:19.612Z,3290
2018-05-29T12:44:21.299Z,3150
2018-05-29T12:45:22.991Z,3030
2018-05-29T12:46:24.786Z,3010
2018-05-29T12:47:26.325Z,2925
2018-05-29T12:48:28.007Z,2295
2018-05-29T12:49:29.701Z,1895
2018-05-29T12:50:31.396Z,1910
2018-05-29T12:51:33.087Z,2110
2018-05-29T12:52:34.812Z,2725
2018-05-29T12:53:36.544Z,2805
2018-05-29T12:54:38.221Z,3030
2018-05-29T12:55:39.914Z,2655
2018-05-29T12:56:41.592Z,2890
2018-05-29T14:01:33.382Z,1815
2018-05-29T14:02:35.052Z,1785
2018-05-29T14:04:26.921Z,1925
2018-05-29T14:05:28.596Z,1860
2018-05-29T14:06:30.276Z,1780
2018-05-29T14:07:31.950Z,1710
2018-05-29T14:08:33.639Z,1755
2018-05-29T14:09:35.309Z,1800
2018-05-29T14:10:37.031Z,1760
2018-05-29T14:11:38.707Z,1750
2018-05-29T14:12:40.396Z,1675
2018-05-29T14:13:42.065Z,1555
2018-05-29T14:14:43.778Z,1575
2018-05-29T14:15:45.459Z,1135
2018-05-29T14:16:47.140Z,1440
2018-05-29T14:17:48.817Z,1385
2018-05-29T14:18:50.502Z,1355
2018-05-29T14:19:52.189Z,1335
2018-05-29T14:20:53.861Z,1310
2018-05-29T14:21:55.533Z,1255
2018-05-29T14:22:57.214Z,1230
2018-05-29T14:23:58.890Z,1240
2018-05-29T14:25:00.579Z,1250
2018-05-29T14:26:02.263Z,1280
2018-05-29T14:27:03.936Z,1275
2018-05-29T14:28:05.604Z,1285
2018-05-29T14:29:07.297Z,1270
2018-05-29T14:30:08.993Z,1230
2018-05-29T14:31:10.703Z,1180
2018-05-29T14:32:12.376Z,1160
2018-05-29T14:33:14.054Z,1150
2018-05-29T14:34:15.729Z,1110
2018-05-29T14:35:17.398Z,1090
2018-05-29T14:36:19.106Z,1080
2018-05-29T14:37:20.781Z,1070
2018-05-29T14:38:23.341Z,1040
2018-05-29T14:39:25.020Z,1005
2018-05-29T14:40:26.664Z,980
2018-05-29T14:41:28.368Z,975
2018-05-29T14:42:30.057Z,980
2018-05-29T14:43:31.773Z,995
2018-05-29T14:44:33.499Z,1010
2018-05-29T14:45:35.203Z,1030
2018-05-29T14:46:36.909Z,1035
2018-05-29T14:47:38.581Z,1035
2018-05-29T14:48:40.268Z,1010
2018-05-29T14:49:41.940Z,1000
2018-05-29T14:50:43.617Z,980
2018-05-29T14:51:45.290Z,955
2018-05-29T14:52:47.045Z,935
2018-05-29T14:53:48.730Z,915
2018-05-29T14:54:50.446Z,895
2018-05-29T14:55:52.128Z,880
2018-05-29T14:56:53.803Z,855
2018-05-29T14:57:55.496Z,835
2018-05-29T14:58:57.182Z,835
2018-05-29T14:59:58.879Z,825
2018-05-29T15:01:00.586Z,825
2018-05-29T15:02:02.279Z,825
2018-05-29T15:03:03.973Z,825
2018-05-29T15:04:05.636Z,835
2018-05-29T15:05:07.313Z,840
2018-05-29T15:06:08.993Z,885
2018-05-29T15:07:10.690Z,935
2018-05-29T15:08:12.368Z,1005
2018-05-29T15:09:14.060Z,1015
2018-05-29T15:10:15.753Z,765
2018-05-29T15:11:17.458Z,755
2018-05-29T15:12:19.144Z,775
2018-05-29T15:13:20.825Z,815
2018-05-29T15:14:22.513Z,885
2018-05-29T15:15:24.224Z,1035
2018-05-29T15:16:25.915Z,1330
2018-05-29T15:17:27.598Z,1370
2018-05-29T15:18:29.266Z,1345
2018-05-29T15:19:30.958Z,1290
2018-05-29T15:20:32.623Z,1200
2018-05-29T15:21:34.306Z,1145
2018-05-29T15:22:35.994Z,1310
2018-05-29T15:23:37.684Z,1195
2018-05-29T15:24:39.368Z,1265
2018-05-29T15:25:40.989Z,1405
2018-05-29T15:26:42.676Z,1440
2018-05-29T15:27:44.363Z,1410
2018-05-29T15:28:46.088Z,1325
2018-05-29T15:29:47.764Z,1265
2018-05-29T15:30:49.465Z,1220